Time;durP1;ratioP1;P1;durP2;ratioP2;P2;SDS_P1;SDS_P2;PMS_P1;PMS_P2;Temp;Humidity;BMP_temperature;BMP_pressure;BME280_temperature;BME280_humidity;BME280_pressure;Samples;Min_cycle;Max_cycle;Signal;HPM_P1;HPM_P2
2022/10/16 00:01:33;;;;;;;82.82;27.98;;;13.90;99.90;;;;;;6272982;22;20187;-90
2022/10/16 00:04:11;;;;;;;81.78;27.95;;;13.90;99.90;;;;;;6273124;23;20167;-92
2022/10/16 00:06:49;;;;;;;87.70;28.80;;;13.90;99.90;;;;;;6272439;22;20214;-90
2022/10/16 00:09:16;;;;;;;98.70;30.27;;;13.90;99.90;;;;;;6264962;22;20163;-89
2022/10/16 00:11:56;;;;;;;96.70;29.77;;;13.90;1.00;;;;;;6252832;22;20164;-92
2022/10/16 00:14:30;;;;;;;98.30;30.27;;;13.90;99.90;;;;;;6273732;23;20200;-93
2022/10/16 00:16:57;;;;;;;97.28;30.13;;;13.90;99.90;;;;;;6245522;23;20153;-87
2022/10/16 00:19:24;;;;;;;97.45;29.95;;;13.90;99.90;;;;;;6245885;23;20160;-87
2022/10/16 00:21:52;;;;;;;92.55;29.38;;;14.00;99.90;;;;;;6245798;23;20168;-88
2022/10/16 00:24:19;;;;;;;83.93;28.10;;;13.90;99.90;;;;;;6245377;23;20183;-87
2022/10/16 00:26:50;;;;;;;97.65;30.05;;;14.00;99.90;;;;;;6245904;23;20167;-88
2022/10/16 00:29:23;;;;;;;91.15;29.17;;;14.00;99.90;;;;;;6267176;23;20159;-91
2022/10/16 00:31:55;;;;;;;101.22;30.23;;;13.90;99.90;;;;;;6273751;23;20147;-93
2022/10/16 00:34:28;;;;;;;84.80;28.15;;;13.90;99.90;;;;;;6272774;23;20160;-91
2022/10/16 00:36:58;;;;;;;93.07;29.20;;;13.90;99.90;;;;;;6272643;23;20166;-91
2022/10/16 00:39:35;;;;;;;90.38;29.08;;;14.00;99.90;;;;;;6272698;22;20163;-90
2022/10/16 00:42:18;;;;;;;75.55;26.85;;;13.90;99.90;;;;;;6273258;23;20170;-91
2022/10/16 00:44:52;;;;;;;75.38;26.90;;;14.00;99.90;;;;;;6272432;23;20152;-90
2022/10/16 00:47:23;;;;;;;74.97;26.75;;;14.00;1.00;;;;;;6245375;23;20634;-89
2022/10/16 00:49:54;;;;;;;82.85;27.92;;;14.00;99.90;;;;;;6245587;23;20480;-89
2022/10/16 00:52:22;;;;;;;77.00;27.00;;;14.00;1.00;;;;;;6245657;23;20163;-87
2022/10/16 00:54:51;;;;;;;78.18;27.35;;;13.90;99.90;;;;;;6245220;23;20166;-88
2022/10/16 00:57:18;;;;;;;88.18;28.88;;;13.90;99.90;;;;;;6245426;23;20196;-88
2022/10/16 00:59:45;;;;;;;81.07;27.83;;;14.00;99.90;;;;;;6245332;23;20164;-88
2022/10/16 01:02:15;;;;;;;90.57;28.88;;;13.90;99.90;;;;;;6245593;22;20222;-87
2022/10/16 01:04:45;;;;;;;74.97;26.77;;;14.00;99.90;;;;;;6245464;23;20160;-88
2022/10/16 01:07:23;;;;;;;78.00;27.17;;;14.00;99.90;;;;;;6244979;23;20226;-89
2022/10/16 01:10:02;;;;;;;78.38;27.35;;;14.00;99.90;;;;;;6245325;23;20167;-90
2022/10/16 01:12:37;;;;;;;73.60;26.58;;;14.00;1.00;;;;;;6245125;23;20158;-89
2022/10/16 01:15:13;;;;;;;73.82;26.58;;;14.00;1.00;;;;;;6245567;23;20155;-88
2022/10/16 01:17:46;;;;;;;70.57;26.02;;;14.00;1.00;;;;;;6245443;23;20164;-89
2022/10/16 01:20:22;;;;;;;82.82;28.13;;;14.00;1.00;;;;;;6245690;23;20157;-87
2022/10/16 01:23:06;;;;;;;72.20;26.35;;;14.00;1.00;;;;;;6245318;23;20179;-89
2022/10/16 01:25:50;;;;;;;75.93;26.90;;;14.00;99.90;;;;;;6245256;23;20179;-88
2022/10/16 01:28:22;;;;;;;72.57;26.48;;;14.00;1.00;;;;;;6244921;23;20207;-88
2022/10/16 01:30:54;;;;;;;83.63;28.13;;;14.00;1.00;;;;;;6244787;23;20152;-87
2022/10/16 01:33:25;;;;;;;82.10;28.00;;;14.00;1.00;;;;;;6244995;23;20218;-88
2022/10/16 01:35:56;;;;;;;83.78;28.25;;;14.00;1.00;;;;;;6245447;23;20152;-89
2022/10/16 01:38:30;;;;;;;85.40;28.35;;;14.00;99.90;;;;;;6244717;23;20167;-90
2022/10/16 01:41:04;;;;;;;84.95;28.38;;;14.00;99.90;;;;;;6245198;23;20155;-89
2022/10/16 01:43:37;;;;;;;85.55;28.40;;;14.00;1.00;;;;;;6245199;23;20517;-88
2022/10/16 01:46:04;;;;;;;84.25;28.08;;;14.00;1.00;;;;;;6245305;23;20152;-87
2022/10/16 01:48:33;;;;;;;84.97;28.33;;;14.10;1.00;;;;;;6245237;22;20211;-90
2022/10/16 01:51:06;;;;;;;83.68;28.20;;;14.00;1.00;;;;;;6245447;23;20164;-87
2022/10/16 01:53:34;;;;;;;83.22;28.02;;;14.00;1.00;;;;;;6245148;23;20152;-88
2022/10/16 01:56:03;;;;;;;79.70;27.55;;;14.00;1.00;;;;;;6244744;23;20606;-89
2022/10/16 01:58:35;;;;;;;81.35;27.77;;;14.00;1.00;;;;;;6245108;22;20242;-89
2022/10/16 02:01:04;;;;;;;79.32;27.42;;;14.10;1.00;;;;;;6245019;23;20183;-88
2022/10/16 02:03:33;;;;;;;80.43;27.58;;;14.00;1.00;;;;;;6244996;23;20526;-87
2022/10/16 02:06:00;;;;;;;78.35;27.27;;;14.10;1.00;;;;;;6244612;23;20168;-88
2022/10/16 02:08:30;;;;;;;77.25;27.23;;;14.10;1.00;;;;;;6245024;23;20192;-88
2022/10/16 02:10:58;;;;;;;77.25;26.95;;;14.10;1.00;;;;;;6244786;22;20156;-87
2022/10/16 02:13:31;;;;;;;73.75;26.60;;;14.00;1.00;;;;;;6244636;23;20745;-89
2022/10/16 02:15:59;;;;;;;76.50;26.95;;;14.10;1.00;;;;;;6244839;23;20212;-89
2022/10/16 02:18:29;;;;;;;74.55;26.73;;;14.10;1.00;;;;;;6246397;22;20168;-90
2022/10/16 02:21:00;;;;;;;76.13;26.95;;;14.10;1.00;;;;;;6247018;23;20210;-87
2022/10/16 02:23:35;;;;;;;73.03;26.60;;;14.10;1.00;;;;;;6247316;23;20206;-89
2022/10/16 02:26:06;;;;;;;72.95;26.67;;;14.10;1.00;;;;;;6247129;23;20175;-88
2022/10/16 02:28:40;;;;;;;70.53;26.08;;;14.10;1.00;;;;;;6246437;22;20191;-88
2022/10/16 02:31:12;;;;;;;68.57;25.92;;;14.10;1.00;;;;;;6246772;23;20159;-88
2022/10/16 02:33:41;;;;;;;67.32;25.67;;;14.10;1.00;;;;;;6246877;23;20156;-88
2022/10/16 02:36:09;;;;;;;69.57;26.08;;;14.10;1.00;;;;;;6246291;23;20171;-88
2022/10/16 02:38:37;;;;;;;68.10;26.00;;;14.10;1.00;;;;;;6246975;23;20175;-88
2022/10/16 02:41:07;;;;;;;74.00;26.88;;;14.10;1.00;;;;;;6246467;22;20663;-89
2022/10/16 02:43:34;;;;;;;79.70;27.52;;;14.10;1.00;;;;;;6246995;23;20613;-88
2022/10/16 02:46:01;;;;;;;82.22;27.83;;;14.10;1.00;;;;;;6247039;23;20164;-89
2022/10/16 02:48:30;;;;;;;82.68;27.95;;;14.10;1.00;;;;;;6246432;23;20188;-89
2022/10/16 02:50:57;;;;;;;81.40;27.85;;;14.10;1.00;;;;;;6246543;22;20486;-87
2022/10/16 02:53:24;;;;;;;80.60;27.55;;;14.00;99.90;;;;;;6246346;22;20179;-89
2022/10/16 02:55:51;;;;;;;74.35;26.83;;;14.00;1.00;;;;;;6247101;23;20214;-89
2022/10/16 02:58:18;;;;;;;79.53;27.35;;;13.90;1.00;;;;;;6246813;23;20186;-88
2022/10/16 03:00:45;;;;;;;78.65;27.33;;;14.00;1.00;;;;;;6246724;23;20167;-88
2022/10/16 03:03:12;;;;;;;76.95;27.33;;;13.90;99.90;;;;;;6246471;23;20164;-88
2022/10/16 03:05:41;;;;;;;71.80;26.45;;;13.90;99.90;;;;;;6246717;22;20160;-88
2022/10/16 03:08:08;;;;;;;76.93;27.15;;;13.90;99.90;;;;;;6246602;23;20520;-89
2022/10/16 03:10:35;;;;;;;60.30;24.67;;;13.80;99.90;;;;;;6246571;23;20171;-88
2022/10/16 03:13:02;;;;;;;70.57;26.23;;;13.80;99.90;;;;;;6246366;22;20164;-87
2022/10/16 03:15:29;;;;;;;71.88;26.45;;;13.70;99.90;;;;;;6246790;23;20164;-90
2022/10/16 03:17:58;;;;;;;72.28;26.40;;;13.70;99.90;;;;;;6246739;23;20238;-88
2022/10/16 03:20:26;;;;;;;71.03;26.33;;;13.70;1.00;;;;;;6246182;23;20168;-89
2022/10/16 03:22:54;;;;;;;66.00;25.58;;;13.70;1.00;;;;;;6246749;23;20164;-88
2022/10/16 03:25:21;;;;;;;64.40;25.27;;;13.60;99.90;;;;;;6246919;23;20160;-90
2022/10/16 03:27:48;;;;;;;61.00;24.58;;;13.60;99.90;;;;;;6246346;22;20171;-90
2022/10/16 03:30:16;;;;;;;65.03;25.30;;;13.60;1.00;;;;;;6246158;23;20160;-90
2022/10/16 03:32:44;;;;;;;64.90;25.40;;;13.60;1.00;;;;;;6246113;23;20160;-88
2022/10/16 03:35:11;;;;;;;55.33;23.63;;;13.60;1.00;;;;;;6246177;23;20163;-89
2022/10/16 03:37:38;;;;;;;70.55;26.35;;;13.50;1.00;;;;;;6246351;23;20164;-89
2022/10/16 03:40:08;;;;;;;75.10;27.23;;;13.50;1.00;;;;;;6246297;23;20164;-89
2022/10/16 03:42:35;;;;;;;73.72;27.00;;;13.50;1.00;;;;;;6246004;23;20488;-89
2022/10/16 03:45:02;;;;;;;71.95;26.63;;;13.50;1.00;;;;;;6245887;23;20164;-89
2022/10/16 03:47:29;;;;;;;72.35;26.75;;;13.50;1.00;;;;;;6245716;23;20175;-88
2022/10/16 03:49:56;;;;;;;68.72;25.95;;;13.50;1.00;;;;;;6246268;23;20187;-89
2022/10/16 03:52:23;;;;;;;69.72;26.20;;;13.50;1.00;;;;;;6245940;23;20164;-89
2022/10/16 03:54:50;;;;;;;68.28;26.20;;;13.40;1.00;;;;;;6246061;23;20601;-89
2022/10/16 03:57:20;;;;;;;70.50;26.48;;;13.40;1.00;;;;;;6245825;23;20168;-89
2022/10/16 03:59:47;;;;;;;70.05;26.40;;;13.40;1.00;;;;;;6246020;23;20164;-89
2022/10/16 04:02:14;;;;;;;69.65;26.35;;;13.40;1.00;;;;;;6246443;23;20160;-89
2022/10/16 04:04:41;;;;;;;67.75;26.15;;;13.40;1.00;;;;;;6245900;23;20170;-89
2022/10/16 04:07:09;;;;;;;70.93;26.55;;;13.40;1.00;;;;;;6246004;23;20188;-89
2022/10/16 04:09:36;;;;;;;69.30;26.38;;;13.40;1.00;;;;;;6246145;23;20188;-89
2022/10/16 04:12:03;;;;;;;66.75;25.63;;;13.40;1.00;;;;;;6245838;23;20235;-89
2022/10/16 04:14:32;;;;;;;68.40;26.10;;;13.30;1.00;;;;;;6245794;22;20160;-89
2022/10/16 04:16:59;;;;;;;76.00;27.50;;;13.30;1.00;;;;;;6246228;23;20168;-88
2022/10/16 04:19:26;;;;;;;69.88;26.40;;;13.30;1.00;;;;;;6245747;23;20175;-88
2022/10/16 04:21:53;;;;;;;65.90;25.60;;;13.30;1.00;;;;;;6245887;23;20449;-89
2022/10/16 04:24:20;;;;;;;71.13;26.80;;;13.30;1.00;;;;;;6245776;22;20156;-89
2022/10/16 04:26:47;;;;;;;72.18;27.05;;;13.20;1.00;;;;;;6246002;23;20156;-89
2022/10/16 04:29:14;;;;;;;63.20;25.27;;;13.20;1.00;;;;;;6245966;23;20183;-89
2022/10/16 04:31:42;;;;;;;66.15;25.95;;;13.20;1.00;;;;;;6245176;22;20171;-89
2022/10/16 04:34:10;;;;;;;72.93;27.25;;;13.20;1.00;;;;;;6245722;22;20156;-89
2022/10/16 04:36:37;;;;;;;72.07;27.08;;;13.20;1.00;;;;;;6245017;22;20156;-89
2022/10/16 04:39:04;;;;;;;71.75;27.00;;;13.20;1.00;;;;;;6245513;23;20168;-89
2022/10/16 04:41:31;;;;;;;67.10;26.10;;;13.10;1.00;;;;;;6244835;23;20163;-89
2022/10/16 04:43:58;;;;;;;64.50;25.42;;;13.20;1.00;;;;;;6245428;23;20163;-88
2022/10/16 04:46:25;;;;;;;63.80;25.58;;;13.10;1.00;;;;;;6245877;23;20160;-89
2022/10/16 04:48:54;;;;;;;62.13;24.95;;;13.20;1.00;;;;;;6245413;23;20494;-88
2022/10/16 04:51:21;;;;;;;64.63;25.63;;;13.20;1.00;;;;;;6245167;23;20160;-89
2022/10/16 04:53:48;;;;;;;65.63;25.60;;;13.20;1.00;;;;;;6245610;23;20640;-89
2022/10/16 04:56:15;;;;;;;61.65;25.05;;;13.20;1.00;;;;;;6245467;23;20168;-88
2022/10/16 04:58:42;;;;;;;58.85;24.45;;;13.30;1.00;;;;;;6245683;23;20521;-88
2022/10/16 05:01:09;;;;;;;67.63;26.10;;;13.30;1.00;;;;;;6245590;22;20446;-89
2022/10/16 05:03:36;;;;;;;66.38;25.73;;;13.30;1.00;;;;;;6245160;22;20167;-89
2022/10/16 05:06:06;;;;;;;67.07;26.02;;;13.30;1.00;;;;;;6245406;22;20160;-89
2022/10/16 05:08:33;;;;;;;63.78;25.23;;;13.30;1.00;;;;;;6245595;22;20192;-89
2022/10/16 05:11:01;;;;;;;55.22;23.58;;;13.40;1.00;;;;;;6245329;23;20163;-88
2022/10/16 05:13:28;;;;;;;59.50;24.05;;;13.40;1.00;;;;;;6245367;23;20464;-89
2022/10/16 05:15:55;;;;;;;65.13;25.42;;;13.40;1.00;;;;;;6245247;23;20484;-89
2022/10/16 05:18:22;;;;;;;68.22;25.85;;;13.40;1.00;;;;;;6245097;23;20164;-88
2022/10/16 05:20:49;;;;;;;70.13;26.05;;;13.40;1.00;;;;;;6245537;22;20164;-89
2022/10/16 05:23:18;;;;;;;66.53;25.88;;;13.40;1.00;;;;;;6245348;23;20160;-90
2022/10/16 05:25:52;;;;;;;64.80;25.30;;;13.40;1.00;;;;;;6245287;22;20174;-90
2022/10/16 05:28:19;;;;;;;63.47;25.10;;;13.40;1.00;;;;;;6245436;23;20156;-90
2022/10/16 05:30:46;;;;;;;62.67;24.95;;;13.40;1.00;;;;;;6245379;22;20179;-90
2022/10/16 05:33:13;;;;;;;67.20;25.70;;;13.40;1.00;;;;;;6245491;23;20166;-91
2022/10/16 05:35:40;;;;;;;69.85;26.30;;;13.40;1.00;;;;;;6245350;23;20214;-90
2022/10/16 05:38:07;;;;;;;67.70;26.08;;;13.40;1.00;;;;;;6245120;22;20163;-89
2022/10/16 05:40:36;;;;;;;68.47;26.05;;;13.50;1.00;;;;;;6245121;23;20468;-88
2022/10/16 05:43:03;;;;;;;63.53;25.15;;;13.50;1.00;;;;;;6244696;23;20213;-88
2022/10/16 05:45:30;;;;;;;64.40;25.27;;;13.50;1.00;;;;;;6244980;23;20164;-88
2022/10/16 05:47:57;;;;;;;64.32;25.33;;;13.50;1.00;;;;;;6245463;22;20183;-88
2022/10/16 05:50:24;;;;;;;58.33;24.00;;;13.50;1.00;;;;;;6245048;23;20180;-88
2022/10/16 05:52:58;;;;;;;57.53;23.85;;;13.60;1.00;;;;;;6254531;22;20166;-90
2022/10/16 05:55:25;;;;;;;54.78;23.50;;;13.60;1.00;;;;;;6257249;23;20164;-86
2022/10/16 05:58:03;;;;;;;56.65;23.88;;;13.60;1.00;;;;;;6246672;23;20170;-91
2022/10/16 06:00:30;;;;;;;55.70;23.58;;;13.60;1.00;;;;;;6267461;23;20152;-87
2022/10/16 06:05:39;;;;;;;58.72;24.17;;;13.60;1.00;;;;;;6261353;23;20173;-87
2022/10/16 06:08:15;;;;;;;61.17;24.60;;;13.60;1.00;;;;;;6245909;22;20187;-89
2022/10/16 06:10:51;;;;;;;59.78;24.35;;;13.70;1.00;;;;;;6271092;23;20210;-91
2022/10/16 06:13:19;;;;;;;59.53;24.40;;;13.70;1.00;;;;;;6254672;23;20182;-87
2022/10/16 06:18:43;;;;;;;54.05;23.52;;;13.70;1.00;;;;;;6252406;23;20171;-88
2022/10/16 06:21:12;;;;;;;56.70;23.92;;;13.80;1.00;;;;;;6244200;22;20156;-87
2022/10/16 06:23:39;;;;;;;55.30;23.77;;;13.80;1.00;;;;;;6245487;23;20160;-88
2022/10/16 06:26:08;;;;;;;58.30;24.27;;;13.90;1.00;;;;;;6244413;23;20160;-88
2022/10/16 06:28:42;;;;;;;56.45;24.02;;;13.90;1.00;;;;;;6270108;23;20160;-94
2022/10/16 06:31:11;;;;;;;53.67;23.40;;;14.00;1.00;;;;;;6268092;23;20163;-89
2022/10/16 06:33:39;;;;;;;53.85;23.45;;;14.10;1.00;;;;;;6247331;22;20171;-90
2022/10/16 06:36:08;;;;;;;53.97;23.45;;;14.20;1.00;;;;;;6250023;22;20173;-89
2022/10/16 06:38:39;;;;;;;54.55;23.50;;;14.20;1.00;;;;;;6258924;23;20191;-94
2022/10/16 06:41:14;;;;;;;52.42;23.08;;;14.30;1.00;;;;;;6271441;22;20186;-91
2022/10/16 06:43:44;;;;;;;50.38;22.85;;;14.40;1.00;;;;;;6246915;23;20587;-89
2022/10/16 06:49:00;;;;;;;47.33;22.23;;;14.50;1.00;;;;;;6224873;22;20179;-90
2022/10/16 06:51:27;;;;;;;46.67;22.00;;;14.60;1.00;;;;;;6244700;22;20163;-89
2022/10/16 06:53:56;;;;;;;39.83;19.90;;;14.60;1.00;;;;;;6256150;22;20160;-89
2022/10/16 06:56:47;;;;;;;46.60;21.90;;;14.60;1.00;;;;;;6251136;23;20167;-91
2022/10/16 06:59:15;;;;;;;46.78;21.85;;;14.70;1.00;;;;;;6244986;22;20156;-89
2022/10/16 07:01:44;;;;;;;45.67;21.70;;;14.70;1.00;;;;;;6245057;23;20159;-89
2022/10/16 07:04:11;;;;;;;42.53;21.02;;;14.80;1.00;;;;;;6244514;23;20194;-88
2022/10/16 07:06:39;;;;;;;42.17;20.98;;;14.80;1.00;;;;;;6245205;22;20168;-89
2022/10/16 07:09:10;;;;;;;41.25;20.67;;;14.90;1.00;;;;;;6251137;23;20183;-89
2022/10/16 07:11:38;;;;;;;40.67;20.50;;;14.90;1.00;;;;;;6246555;23;20306;-89
2022/10/16 07:14:06;;;;;;;42.85;21.17;;;15.00;1.00;;;;;;6246393;23;20159;-88
2022/10/16 07:16:35;;;;;;;30.10;17.63;;;15.10;1.00;;;;;;6246425;22;20160;-89
2022/10/16 07:19:03;;;;;;;46.40;21.83;;;15.30;1.00;;;;;;6253923;23;20170;-90
2022/10/16 07:21:35;;;;;;;47.85;22.25;;;15.40;1.00;;;;;;6246880;23;20210;-90
2022/10/16 07:24:12;;;;;;;47.45;22.27;;;15.60;1.00;;;;;;6266417;23;20186;-91
2022/10/16 07:26:39;;;;;;;48.88;22.48;;;15.80;1.00;;;;;;6246400;23;20195;-87
2022/10/16 07:29:09;;;;;;;47.67;22.35;;;16.10;1.00;;;;;;6246656;22;20170;-88
2022/10/16 07:31:38;;;;;;;50.80;23.15;;;16.40;1.00;;;;;;6246834;23;20038;-88
2022/10/16 07:34:05;;;;;;;;;;;16.80;1.00;;;;;;6246888;22;20370;-87
2022/10/16 07:36:32;;;;;;;;;;;17.30;1.00;;;;;;6247194;22;19911;-87
2022/10/16 07:38:59;;;;;;;;;;;18.00;1.00;;;;;;6247073;23;19911;-88
2022/10/16 07:41:26;;;;;;;;;;;18.80;1.00;;;;;;6246747;22;19916;-90
2022/10/16 07:43:54;;;;;;;49.33;23.17;;;19.60;1.00;;;;;;6246400;23;20191;-90
2022/10/16 07:46:21;;;;;;;;;;;20.30;1.00;;;;;;6249422;23;20012;-88
2022/10/16 07:48:50;;;;;;;58.92;25.17;;;21.00;1.00;;;;;;6246008;23;20176;-89
2022/10/16 07:51:51;;;;;;;71.95;27.10;;;21.70;1.00;;;;;;6245653;23;20545;-91
2022/10/16 07:54:18;;;;;;;76.47;27.93;;;22.20;1.00;;;;;;6245468;22;20164;-90
2022/10/16 07:56:45;;;;;;;84.53;28.58;;;22.40;1.00;;;;;;6245736;22;20240;-88
2022/10/16 08:05:32;;;;;;;;;;;24.70;13.70;;;;;;6123633;23;20020;-89
2022/10/16 08:08:47;;;;;;;105.05;31.15;;;25.90;1.00;;;;;;6103386;23;20863;-88
2022/10/16 08:11:42;;;;;;;64.13;26.63;;;26.30;1.00;;;;;;6086268;23;20161;-90
2022/10/16 08:14:09;;;;;;;;;;;25.80;1.00;;;;;;6094488;23;20094;-87
2022/10/16 08:16:38;;;;;;;;;;;25.00;99.90;;;;;;6153014;23;19900;-91
2022/10/16 08:19:05;;;;;;;;;;;24.90;1.00;;;;;;6192121;23;19912;-87
2022/10/16 08:21:32;;;;;;;;;;;25.30;99.90;;;;;;6194259;23;19991;-93
2022/10/16 08:24:00;;;;;;;;;;;25.70;1.00;;;;;;6185860;23;20235;-87
2022/10/16 08:26:38;;;;;;;;;;;26.30;99.90;;;;;;6187374;23;20371;-90
2022/10/16 08:29:08;;;;;;;;;;;26.80;99.90;;;;;;6189301;23;19912;-90
2022/10/16 08:31:37;;;;;;;;;;;26.60;1.00;;;;;;6190834;23;19919;-91
2022/10/16 08:34:10;;;;;;;59.75;25.85;;;26.70;1.00;;;;;;6209153;23;20054;-88
2022/10/16 08:36:43;;;;;;;57.53;25.85;;;27.00;1.00;;;;;;6206050;23;20206;-92
2022/10/16 08:39:22;;;;;;;60.47;26.40;;;27.40;1.00;;;;;;6211979;23;20182;-92
2022/10/16 08:45:31;;;;;;;63.20;26.65;;;27.90;1.00;;;;;;6195829;23;20167;-92
2022/10/16 08:48:10;;;;;;;65.28;26.80;;;28.30;1.00;;;;;;6193413;23;20235;-87
2022/10/16 08:50:40;;;;;;;62.55;26.60;;;28.40;1.00;;;;;;6184810;23;20526;-87
2022/10/16 08:53:11;;;;;;;53.50;24.50;;;28.00;1.00;;;;;;6186456;23;20178;-88
2022/10/16 08:55:47;;;;;;;45.67;23.00;;;27.20;1.00;;;;;;6196147;23;20157;-88
2022/10/16 08:58:27;;;;;;;44.28;22.70;;;26.40;1.00;;;;;;6192946;23;20153;-91
2022/10/16 09:00:56;;;;;;;49.95;23.88;;;25.70;1.00;;;;;;6201369;23;20177;-87
2022/10/16 09:03:41;;;;;;;58.90;25.35;;;25.10;1.00;;;;;;6191878;23;20169;-90
2022/10/16 09:06:32;;;;;;;59.80;25.58;;;24.70;1.00;;;;;;6186812;23;20152;-84
2022/10/16 09:09:12;;;;;;;62.65;25.83;;;24.60;1.00;;;;;;6199301;23;20162;-91
2022/10/16 09:11:49;;;;;;;63.97;26.15;;;24.70;1.00;;;;;;6195131;23;20165;-88
2022/10/16 09:14:36;;;;;;;67.72;26.75;;;25.10;1.00;;;;;;6201667;23;20210;-86
2022/10/16 09:17:18;;;;;;;65.97;26.58;;;25.60;1.00;;;;;;6182614;23;20550;-87
2022/10/16 09:19:52;;;;;;;67.57;26.73;;;25.90;1.00;;;;;;6183705;23;20500;-89
2022/10/16 09:22:23;;;;;;;67.65;26.88;;;25.80;1.00;;;;;;6198012;23;20151;-88
2022/10/16 09:25:17;;;;;;;65.68;26.95;;;25.90;1.00;;;;;;6192212;23;20174;-90
2022/10/16 09:27:48;;;;;;;62.67;26.25;;;25.90;1.00;;;;;;6184005;23;20169;-86
2022/10/16 09:30:19;;;;;;;58.42;25.30;;;25.90;1.00;;;;;;6186618;23;20157;-88
2022/10/16 09:33:01;;;;;;;61.33;25.92;;;25.60;1.00;;;;;;6187512;23;20154;-86
2022/10/16 09:35:37;;;;;;;53.42;24.48;;;25.40;1.00;;;;;;6187687;23;20247;-87
2022/10/16 09:38:06;;;;;;;53.60;24.42;;;25.00;1.00;;;;;;6188792;23;20154;-91
2022/10/16 09:40:36;;;;;;;52.95;24.23;;;24.60;1.00;;;;;;6186210;23;20170;-87
2022/10/16 09:43:14;;;;;;;53.13;24.33;;;24.20;1.00;;;;;;6192845;23;20230;-88
2022/10/16 09:45:43;;;;;;;38.22;21.17;;;23.80;1.00;;;;;;6189467;23;20231;-88
2022/10/16 09:48:12;;;;;;;;;;;23.50;1.00;;;;;;6185486;23;20440;-89
2022/10/16 09:50:41;;;;;;;37.42;21.02;;;23.20;1.00;;;;;;6183714;23;20185;-87
2022/10/16 09:53:22;;;;;;;30.70;19.48;;;23.00;1.00;;;;;;6189012;23;20175;-91
2022/10/16 09:56:14;;;;;;;31.83;19.92;;;22.70;1.00;;;;;;6210960;23;20210;-93
2022/10/16 10:02:00;;;;;;;31.63;19.67;;;22.30;1.00;;;;;;6207405;23;20173;-91
2022/10/16 10:04:38;;;;;;;35.80;20.33;;;22.10;1.00;;;;;;6188152;23;25052;-86
2022/10/16 10:07:05;;;;;;;37.47;20.95;;;21.90;1.00;;;;;;6197487;22;20537;-86
2022/10/16 10:09:38;;;;;;;29.40;18.88;;;21.80;1.00;;;;;;6245074;23;20170;-86
2022/10/16 10:12:06;;;;;;;35.63;20.13;;;21.80;1.00;;;;;;6245137;23;20194;-85
2022/10/16 10:14:36;;;;;;;;;;;21.60;1.00;;;;;;6247639;23;20169;-87
2022/10/16 10:17:15;;;;;;;61.53;25.40;;;21.50;1.00;;;;;;6252798;22;20405;-86
2022/10/16 10:19:47;;;;;;;37.20;21.02;;;21.40;1.00;;;;;;6252745;23;20152;-87
2022/10/16 10:22:41;;;;;;;31.23;19.33;;;21.20;1.00;;;;;;6244750;23;20157;-87
2022/10/16 10:25:20;;;;;;;32.05;19.63;;;21.10;1.00;;;;;;6239646;23;20189;-87
2022/10/16 10:28:02;;;;;;;29.95;18.80;;;21.10;1.00;;;;;;6248548;23;20159;-91
2022/10/16 10:30:40;;;;;;;35.10;20.15;;;21.00;1.00;;;;;;6251339;23;20153;-86
2022/10/16 10:33:25;;;;;;;33.22;19.77;;;20.90;1.00;;;;;;6253978;23;20216;-88
2022/10/16 10:36:03;;;;;;;35.50;20.30;;;20.90;1.00;;;;;;6249176;23;20181;-90
2022/10/16 10:38:40;;;;;;;32.97;19.80;;;21.00;1.00;;;;;;6244604;23;20151;-86
2022/10/16 10:41:37;;;;;;;39.15;21.23;;;21.00;1.00;;;;;;6246848;23;20178;-87
2022/10/16 10:44:16;;;;;;;47.13;22.80;;;21.00;1.00;;;;;;6246295;23;20152;-87
2022/10/16 10:46:51;;;;;;;39.92;21.25;;;21.00;1.00;;;;;;6246335;23;20158;-87
2022/10/16 10:49:34;;;;;;;59.83;25.05;;;21.00;1.00;;;;;;6245180;23;20370;-88
2022/10/16 10:52:14;;;;;;;32.25;19.67;;;21.00;1.00;;;;;;6246707;23;20194;-87
2022/10/16 10:54:51;;;;;;;26.60;18.05;;;21.00;1.00;;;;;;6249946;23;20442;-85
2022/10/16 10:57:25;;;;;;;30.50;19.05;;;21.00;1.00;;;;;;6246513;23;20613;-85
2022/10/16 11:00:17;;;;;;;29.92;19.15;;;20.90;1.00;;;;;;6246600;23;20161;-85
2022/10/16 11:02:53;;;;;;;30.30;19.17;;;20.90;1.00;;;;;;6245963;23;20233;-86
2022/10/16 11:05:34;;;;;;;29.15;18.77;;;20.80;1.00;;;;;;6251264;23;20468;-86
2022/10/16 11:08:05;;;;;;;30.40;19.13;;;20.70;1.00;;;;;;6246479;23;20198;-86
2022/10/16 11:10:50;;;;;;;30.70;19.33;;;20.80;1.00;;;;;;6253908;23;20153;-87
2022/10/16 11:13:30;;;;;;;32.47;19.63;;;20.90;1.00;;;;;;6246645;23;20153;-87
2022/10/16 11:16:00;;;;;;;34.40;20.05;;;21.00;1.00;;;;;;6246297;23;20203;-87
2022/10/16 11:18:44;;;;;;;34.40;20.08;;;21.10;1.00;;;;;;6252377;23;20154;-90
2022/10/16 11:21:17;;;;;;;33.08;19.90;;;21.10;1.00;;;;;;6251534;23;20228;-85
2022/10/16 11:23:50;;;;;;;32.53;19.60;;;21.00;1.00;;;;;;6245793;23;20142;-85
2022/10/16 11:26:22;;;;;;;33.38;19.95;;;21.00;1.00;;;;;;6246114;23;20157;-85
2022/10/16 11:28:51;;;;;;;33.47;19.85;;;21.10;1.00;;;;;;6245916;23;20596;-85
2022/10/16 11:31:24;;;;;;;35.20;20.33;;;21.10;1.00;;;;;;6245919;22;20170;-86
2022/10/16 11:34:00;;;;;;;32.53;19.65;;;21.20;1.00;;;;;;6245461;23;20155;-86
2022/10/16 11:36:36;;;;;;;29.75;19.05;;;21.20;1.00;;;;;;6246091;23;20154;-86
2022/10/16 11:39:12;;;;;;;30.85;19.50;;;21.10;1.00;;;;;;6245647;23;20526;-86
2022/10/16 11:41:46;;;;;;;27.13;18.33;;;21.00;1.00;;;;;;6246094;23;20181;-86
2022/10/16 11:44:28;;;;;;;27.23;18.38;;;20.90;1.00;;;;;;6245699;23;20185;-86
2022/10/16 11:47:06;;;;;;;27.08;18.25;;;20.80;1.00;;;;;;6245720;23;20159;-86
2022/10/16 11:49:35;;;;;;;22.88;17.05;;;20.60;1.00;;;;;;6245697;23;20159;-86
2022/10/16 11:52:13;;;;;;;25.27;18.35;;;20.60;1.00;;;;;;6245557;23;20168;-86
2022/10/16 11:54:48;;;;;;;27.67;18.73;;;20.60;1.00;;;;;;6245704;23;20152;-86
2022/10/16 11:57:21;;;;;;;25.98;17.90;;;20.50;1.00;;;;;;6245999;23;20148;-86
2022/10/16 11:59:53;;;;;;;27.63;18.40;;;20.40;1.00;;;;;;6246181;23;20151;-86
2022/10/16 12:02:47;;;;;;;28.05;18.38;;;20.40;1.00;;;;;;6245372;23;20181;-86
2022/10/16 12:05:23;;;;;;;29.27;18.77;;;20.40;1.00;;;;;;6245677;22;20167;-86
2022/10/16 12:08:01;;;;;;;31.15;18.92;;;20.30;1.00;;;;;;6245635;23;20183;-86
2022/10/16 12:10:31;;;;;;;31.30;19.02;;;20.30;1.00;;;;;;6245868;23;20516;-86
2022/10/16 12:12:58;;;;;;;34.08;19.52;;;20.30;1.00;;;;;;6245906;23;20231;-86
2022/10/16 12:15:28;;;;;;;38.05;20.63;;;20.40;1.00;;;;;;6245216;23;20173;-86
2022/10/16 12:17:55;;;;;;;42.53;21.52;;;20.50;1.00;;;;;;6245249;23;20253;-86
2022/10/16 12:20:27;;;;;;;43.17;21.52;;;20.50;1.00;;;;;;6245337;23;20246;-86
2022/10/16 12:22:58;;;;;;;43.70;22.00;;;20.60;1.00;;;;;;6245020;23;20508;-86
2022/10/16 12:25:29;;;;;;;44.47;21.77;;;20.60;1.00;;;;;;6245218;23;20156;-86
2022/10/16 12:27:59;;;;;;;43.97;21.83;;;20.70;1.00;;;;;;6245200;23;20461;-86
2022/10/16 12:30:29;;;;;;;46.38;22.35;;;20.80;1.00;;;;;;6245500;23;20169;-86
2022/10/16 12:32:58;;;;;;;46.55;22.27;;;20.70;1.00;;;;;;6244961;23;20157;-86
2022/10/16 12:35:28;;;;;;;45.35;22.10;;;20.70;1.00;;;;;;6245479;23;20160;-86
2022/10/16 12:38:14;;;;;;;44.88;21.90;;;20.70;1.00;;;;;;6245559;23;20155;-86
2022/10/16 12:40:42;;;;;;;46.83;22.40;;;20.80;1.00;;;;;;6244945;23;20181;-86
2022/10/16 12:43:25;;;;;;;48.28;22.58;;;20.80;1.00;;;;;;6245505;23;20164;-86
2022/10/16 12:46:02;;;;;;;47.70;22.60;;;20.70;1.00;;;;;;6245499;23;20154;-86
2022/10/16 12:48:29;;;;;;;46.78;22.38;;;20.80;1.00;;;;;;6245390;23;20150;-86
2022/10/16 12:50:57;;;;;;;44.95;21.98;;;20.70;1.00;;;;;;6245322;22;20211;-86
2022/10/16 12:53:28;;;;;;;44.47;22.02;;;20.70;1.00;;;;;;6245101;22;20160;-86
2022/10/16 12:56:05;;;;;;;44.97;21.85;;;20.60;1.00;;;;;;6244983;23;20232;-86
2022/10/16 12:58:50;;;;;;;47.15;22.55;;;20.80;1.00;;;;;;6244823;23;20214;-86
2022/10/16 13:01:33;;;;;;;50.33;23.20;;;21.00;1.00;;;;;;6244615;23;20511;-87
2022/10/16 13:04:16;;;;;;;49.75;22.90;;;21.10;1.00;;;;;;6245458;23;20505;-86
2022/10/16 13:06:52;;;;;;;50.40;23.23;;;21.10;1.00;;;;;;6244703;22;20185;-86
2022/10/16 13:09:33;;;;;;;51.35;23.48;;;21.00;1.00;;;;;;6244792;23;20162;-86
2022/10/16 13:12:19;;;;;;;51.65;23.40;;;20.90;1.00;;;;;;6244716;23;20163;-86
2022/10/16 13:15:12;;;;;;;52.90;23.45;;;20.90;1.00;;;;;;6245278;23;20175;-86
2022/10/16 13:17:49;;;;;;;51.80;23.27;;;21.00;1.00;;;;;;6245326;23;20155;-86
2022/10/16 13:20:25;;;;;;;52.22;23.48;;;21.00;1.00;;;;;;6244685;23;20652;-86
2022/10/16 13:23:01;;;;;;;52.80;23.50;;;21.10;1.00;;;;;;6244176;23;20183;-86
2022/10/16 13:25:41;;;;;;;52.38;23.63;;;21.10;1.00;;;;;;6244659;23;20158;-86
2022/10/16 13:28:10;;;;;;;52.83;23.88;;;21.10;1.00;;;;;;6244872;23;20612;-86